KCHA/CHA METAR and TAF weather

Enter ICAO airport designator
Station Type Date Time Source
KCHA METAR 2021/05/15 22:53 UTC NOAA

KCHA 152253Z 23007KT 10SM FEW075 BKN250 25/07 A3017 RMK AO2 SLP212 T02500067 $


Station Type Date Time Source
KCHA Decoded METAR 2021/05/15 22:53 UTC NOAA

LOVELL FIELD, TN, United States (KCHA) 35-02N 085-12W 210M
May 15, 2021 - 06:53 PM EDT / 2021.05.15 2253 UTC
Wind: from the SW (230 degrees) at 8 MPH (7 KT):0
Visibility: 10 mile(s):0
Sky conditions: mostly cloudy
Temperature: 77.0 F (25.0 C)
Dew Point: 44.1 F (6.7 C)
Relative Humidity: 30%
Pressure (altimeter): 30.17 in. Hg (1021 hPa)
ob: KCHA 152253Z 23007KT 10SM FEW075 BKN250 25/07 A3017 RMK AO2 SLP212 T02500067
cycle: 23

Station Type Date Time Source
KCHA TAF 2021/05/15 18:22 UTC NOAA

TAF KCHA 151720Z 1518/1618 20005KT P6SM FEW060
FM160800 00000KT P6SM SCT050

Example: see airport list